sensor_id;sensor_type;location;lat;lon;timestamp;pressure;altitude;pressure_sealevel;temperature;humidity
65557;BME280;52200;53.490;14.376;2023-04-19T00:00:13;102785.03;;;3.68;75.72
65557;BME280;52200;53.490;14.376;2023-04-19T00:02:38;102794.50;;;3.75;75.55
65557;BME280;52200;53.490;14.376;2023-04-19T00:05:06;102792.13;;;3.80;75.85
65557;BME280;52200;53.490;14.376;2023-04-19T00:07:32;102796.59;;;3.87;76.48
65557;BME280;52200;53.490;14.376;2023-04-19T00:09:57;102790.16;;;3.71;76.97
65557;BME280;52200;53.490;14.376;2023-04-19T00:12:23;102785.13;;;3.71;77.95
65557;BME280;52200;53.490;14.376;2023-04-19T00:14:48;102781.44;;;3.85;77.42
65557;BME280;52200;53.490;14.376;2023-04-19T00:17:13;102777.44;;;3.91;77.37
65557;BME280;52200;53.490;14.376;2023-04-19T00:19:39;102766.75;;;3.96;78.08
65557;BME280;52200;53.490;14.376;2023-04-19T00:22:05;102761.56;;;3.92;78.26
65557;BME280;52200;53.490;14.376;2023-04-19T00:24:30;102760.34;;;3.80;78.87
65557;BME280;52200;53.490;14.376;2023-04-19T00:26:56;102765.72;;;3.91;79.58
65557;BME280;52200;53.490;14.376;2023-04-19T00:29:23;102763.72;;;3.82;79.53
65557;BME280;52200;53.490;14.376;2023-04-19T00:31:48;102758.50;;;3.76;80.32
65557;BME280;52200;53.490;14.376;2023-04-19T00:34:14;102758.66;;;3.81;81.06
65557;BME280;52200;53.490;14.376;2023-04-19T00:36:40;102753.09;;;3.90;81.00
65557;BME280;52200;53.490;14.376;2023-04-19T00:39:05;102758.53;;;4.02;81.11
65557;BME280;52200;53.490;14.376;2023-04-19T00:41:30;102752.34;;;3.92;80.80
65557;BME280;52200;53.490;14.376;2023-04-19T00:43:56;102737.38;;;3.95;81.60
65557;BME280;52200;53.490;14.376;2023-04-19T00:46:21;102738.00;;;3.90;82.09
65557;BME280;52200;53.490;14.376;2023-04-19T00:48:48;102726.03;;;3.82;82.78
65557;BME280;52200;53.490;14.376;2023-04-19T00:51:14;102733.44;;;3.78;83.38
65557;BME280;52200;53.490;14.376;2023-04-19T00:53:42;102722.19;;;3.68;84.66
65557;BME280;52200;53.490;14.376;2023-04-19T00:56:08;102725.78;;;3.50;86.69
65557;BME280;52200;53.490;14.376;2023-04-19T00:58:36;102717.44;;;3.51;87.10
65557;BME280;52200;53.490;14.376;2023-04-19T01:01:03;102717.72;;;3.59;86.98
65557;BME280;52200;53.490;14.376;2023-04-19T01:03:29;102712.19;;;3.45;87.61
65557;BME280;52200;53.490;14.376;2023-04-19T01:05:55;102710.38;;;3.41;87.60
65557;BME280;52200;53.490;14.376;2023-04-19T01:08:21;102701.13;;;3.40;87.89
65557;BME280;52200;53.490;14.376;2023-04-19T01:10:47;102704.44;;;3.39;87.63
65557;BME280;52200;53.490;14.376;2023-04-19T01:13:12;102695.94;;;3.60;87.36
65557;BME280;52200;53.490;14.376;2023-04-19T01:15:38;102694.00;;;3.52;87.39
65557;BME280;52200;53.490;14.376;2023-04-19T01:18:03;102695.13;;;3.36;87.68
65557;BME280;52200;53.490;14.376;2023-04-19T01:20:29;102698.56;;;3.38;87.90
65557;BME280;52200;53.490;14.376;2023-04-19T01:22:54;102688.94;;;3.27;88.18
65557;BME280;52200;53.490;14.376;2023-04-19T01:25:20;102694.13;;;3.07;88.90
65557;BME280;52200;53.490;14.376;2023-04-19T01:27:45;102685.94;;;3.13;88.50
65557;BME280;52200;53.490;14.376;2023-04-19T01:30:11;102684.97;;;3.09;88.75
65557;BME280;52200;53.490;14.376;2023-04-19T01:32:36;102683.81;;;3.23;87.59
65557;BME280;52200;53.490;14.376;2023-04-19T01:35:02;102685.94;;;3.13;88.31
65557;BME280;52200;53.490;14.376;2023-04-19T01:37:28;102683.31;;;2.87;89.06
65557;BME280;52200;53.490;14.376;2023-04-19T01:39:53;102674.69;;;3.03;87.96
65557;BME280;52200;53.490;14.376;2023-04-19T01:42:19;102676.84;;;2.92;88.82
65557;BME280;52200;53.490;14.376;2023-04-19T01:44:44;102669.22;;;2.90;88.59
65557;BME280;52200;53.490;14.376;2023-04-19T01:47:10;102664.44;;;2.97;88.04
65557;BME280;52200;53.490;14.376;2023-04-19T01:49:35;102659.19;;;2.90;87.54
65557;BME280;52200;53.490;14.376;2023-04-19T01:52:01;102644.03;;;2.87;88.21
65557;BME280;52200;53.490;14.376;2023-04-19T01:54:26;102646.66;;;2.45;88.27
65557;BME280;52200;53.490;14.376;2023-04-19T01:56:52;102644.84;;;2.42;89.09
65557;BME280;52200;53.490;14.376;2023-04-19T01:59:17;102640.38;;;2.56;90.27
65557;BME280;52200;53.490;14.376;2023-04-19T02:01:42;102642.25;;;2.62;89.73
65557;BME280;52200;53.490;14.376;2023-04-19T02:04:08;102634.50;;;2.56;89.41
65557;BME280;52200;53.490;14.376;2023-04-19T02:06:34;102640.59;;;2.63;90.81
65557;BME280;52200;53.490;14.376;2023-04-19T02:09:00;102643.34;;;2.69;91.23
65557;BME280;52200;53.490;14.376;2023-04-19T02:11:25;102636.91;;;2.53;91.75
65557;BME280;52200;53.490;14.376;2023-04-19T02:13:51;102630.44;;;2.60;92.52
65557;BME280;52200;53.490;14.376;2023-04-19T02:16:16;102640.03;;;2.70;93.33
65557;BME280;52200;53.490;14.376;2023-04-19T02:18:42;102637.38;;;2.89;92.27
65557;BME280;52200;53.490;14.376;2023-04-19T02:21:08;102636.38;;;2.84;92.03
65557;BME280;52200;53.490;14.376;2023-04-19T02:23:34;102632.09;;;2.82;91.92
65557;BME280;52200;53.490;14.376;2023-04-19T02:26:00;102627.25;;;2.86;92.22
65557;BME280;52200;53.490;14.376;2023-04-19T02:28:28;102628.53;;;2.99;92.54
65557;BME280;52200;53.490;14.376;2023-04-19T02:30:54;102625.22;;;3.00;92.39
65557;BME280;52200;53.490;14.376;2023-04-19T02:33:21;102622.19;;;3.09;91.97
65557;BME280;52200;53.490;14.376;2023-04-19T02:35:46;102614.78;;;3.12;91.14
65557;BME280;52200;53.490;14.376;2023-04-19T02:38:12;102617.88;;;3.05;91.82
65557;BME280;52200;53.490;14.376;2023-04-19T02:40:37;102614.41;;;3.26;90.47
65557;BME280;52200;53.490;14.376;2023-04-19T02:43:03;102609.47;;;3.29;90.48
65557;BME280;52200;53.490;14.376;2023-04-19T02:45:28;102608.84;;;3.34;90.36
65557;BME280;52200;53.490;14.376;2023-04-19T02:47:54;102603.84;;;3.36;89.46
65557;BME280;52200;53.490;14.376;2023-04-19T02:50:19;102592.22;;;3.38;89.23
65557;BME280;52200;53.490;14.376;2023-04-19T02:52:45;102595.00;;;3.47;88.50
65557;BME280;52200;53.490;14.376;2023-04-19T02:55:10;102593.00;;;3.37;89.06
65557;BME280;52200;53.490;14.376;2023-04-19T02:57:36;102586.47;;;3.42;89.50
65557;BME280;52200;53.490;14.376;2023-04-19T03:00:01;102576.78;;;3.53;88.33
65557;BME280;52200;53.490;14.376;2023-04-19T03:02:29;102579.13;;;3.48;88.48
65557;BME280;52200;53.490;14.376;2023-04-19T03:04:54;102579.41;;;3.58;88.91
65557;BME280;52200;53.490;14.376;2023-04-19T03:07:20;102582.75;;;3.57;87.88
65557;BME280;52200;53.490;14.376;2023-04-19T03:09:45;102580.25;;;3.57;87.82
65557;BME280;52200;53.490;14.376;2023-04-19T03:12:12;102566.06;;;3.59;88.03
65557;BME280;52200;53.490;14.376;2023-04-19T03:14:37;102572.19;;;3.67;88.01
65557;BME280;52200;53.490;14.376;2023-04-19T03:17:03;102568.09;;;3.69;87.66
65557;BME280;52200;53.490;14.376;2023-04-19T03:19:28;102567.16;;;3.67;87.65
65557;BME280;52200;53.490;14.376;2023-04-19T03:21:54;102569.47;;;3.61;88.30
65557;BME280;52200;53.490;14.376;2023-04-19T03:24:26;102558.59;;;3.60;87.87
65557;BME280;52200;53.490;14.376;2023-04-19T03:26:53;102551.94;;;3.62;88.39
65557;BME280;52200;53.490;14.376;2023-04-19T03:29:18;102545.38;;;3.67;87.62
65557;BME280;52200;53.490;14.376;2023-04-19T03:31:44;102551.78;;;3.58;88.72
65557;BME280;52200;53.490;14.376;2023-04-19T03:34:09;102549.56;;;3.67;88.70
65557;BME280;52200;53.490;14.376;2023-04-19T03:36:35;102546.88;;;3.61;88.16
65557;BME280;52200;53.490;14.376;2023-04-19T03:39:02;102547.28;;;3.75;87.79
65557;BME280;52200;53.490;14.376;2023-04-19T03:41:27;102546.44;;;3.74;87.79
65557;BME280;52200;53.490;14.376;2023-04-19T03:43:52;102541.22;;;3.68;88.10
65557;BME280;52200;53.490;14.376;2023-04-19T03:46:18;102541.22;;;3.68;88.42
65557;BME280;52200;53.490;14.376;2023-04-19T03:48:43;102541.00;;;3.60;87.94
65557;BME280;52200;53.490;14.376;2023-04-19T03:51:09;102537.91;;;3.69;88.90
65557;BME280;52200;53.490;14.376;2023-04-19T03:53:35;102543.03;;;3.72;87.93
65557;BME280;52200;53.490;14.376;2023-04-19T03:56:01;102543.81;;;3.71;88.04
65557;BME280;52200;53.490;14.376;2023-04-19T03:58:26;102538.75;;;3.69;88.59
65557;BME280;52200;53.490;14.376;2023-04-19T04:00:52;102538.94;;;3.76;88.41
65557;BME280;52200;53.490;14.376;2023-04-19T04:03:18;102540.31;;;3.66;88.45
65557;BME280;52200;53.490;14.376;2023-04-19T04:05:43;102534.94;;;3.82;88.29
65557;BME280;52200;53.490;14.376;2023-04-19T04:08:09;102531.72;;;3.85;87.27
65557;BME280;52200;53.490;14.376;2023-04-19T04:10:34;102534.94;;;3.82;87.89
65557;BME280;52200;53.490;14.376;2023-04-19T04:13:00;102531.44;;;3.77;87.91
65557;BME280;52200;53.490;14.376;2023-04-19T04:15:25;102530.63;;;3.77;87.65
65557;BME280;52200;53.490;14.376;2023-04-19T04:17:51;102530.84;;;3.84;87.86
65557;BME280;52200;53.490;14.376;2023-04-19T04:20:16;102528.47;;;3.89;87.50
65557;BME280;52200;53.490;14.376;2023-04-19T04:22:42;102533.84;;;4.00;86.96
65557;BME280;52200;53.490;14.376;2023-04-19T04:25:08;102526.91;;;3.93;86.93
65557;BME280;52200;53.490;14.376;2023-04-19T04:27:35;102530.03;;;3.85;88.11
65557;BME280;52200;53.490;14.376;2023-04-19T04:30:01;102520.00;;;3.87;88.71
65557;BME280;52200;53.490;14.376;2023-04-19T04:32:27;102525.91;;;3.87;88.52
65557;BME280;52200;53.490;14.376;2023-04-19T04:34:52;102522.63;;;3.90;87.82
65557;BME280;52200;53.490;14.376;2023-04-19T04:37:17;102525.19;;;3.92;88.12
65557;BME280;52200;53.490;14.376;2023-04-19T04:39:43;102526.53;;;4.09;88.42
65557;BME280;52200;53.490;14.376;2023-04-19T04:42:09;102529.16;;;4.12;88.05
65557;BME280;52200;53.490;14.376;2023-04-19T04:44:37;102524.91;;;4.10;87.54
65557;BME280;52200;53.490;14.376;2023-04-19T04:47:06;102530.19;;;4.19;87.73
65557;BME280;52200;53.490;14.376;2023-04-19T04:49:31;102515.81;;;4.15;87.94
65557;BME280;52200;53.490;14.376;2023-04-19T04:51:57;102520.34;;;4.27;87.71
65557;BME280;52200;53.490;14.376;2023-04-19T04:54:23;102517.50;;;4.45;87.58
65557;BME280;52200;53.490;14.376;2023-04-19T04:56:48;102520.06;;;4.46;87.30
65557;BME280;52200;53.490;14.376;2023-04-19T04:59:13;102509.34;;;4.54;87.33
65557;BME280;52200;53.490;14.376;2023-04-19T05:01:39;102503.63;;;4.59;86.64
65557;BME280;52200;53.490;14.376;2023-04-19T05:04:05;102505.44;;;4.65;86.55
65557;BME280;52200;53.490;14.376;2023-04-19T05:06:30;102502.13;;;4.66;86.41
65557;BME280;52200;53.490;14.376;2023-04-19T05:08:56;102491.69;;;4.84;85.37
65557;BME280;52200;53.490;14.376;2023-04-19T05:11:21;102495.22;;;5.26;84.46
65557;BME280;52200;53.490;14.376;2023-04-19T05:13:47;102501.09;;;5.60;82.80
65557;BME280;52200;53.490;14.376;2023-04-19T05:16:12;102496.81;;;5.57;82.36
65557;BME280;52200;53.490;14.376;2023-04-19T05:18:37;102491.00;;;5.60;81.96
65557;BME280;52200;53.490;14.376;2023-04-19T05:21:03;102494.47;;;5.65;81.69
65557;BME280;52200;53.490;14.376;2023-04-19T05:23:28;102491.28;;;5.72;81.91
65557;BME280;52200;53.490;14.376;2023-04-19T05:25:54;102492.75;;;5.64;81.93
65557;BME280;52200;53.490;14.376;2023-04-19T05:28:19;102494.56;;;5.70;81.21
65557;BME280;52200;53.490;14.376;2023-04-19T05:30:45;102495.75;;;5.84;81.02
65557;BME280;52200;53.490;14.376;2023-04-19T05:33:10;102492.31;;;5.80;80.38
65557;BME280;52200;53.490;14.376;2023-04-19T05:35:35;102496.19;;;5.66;81.13
65557;BME280;52200;53.490;14.376;2023-04-19T05:38:01;102477.56;;;5.61;81.36
65557;BME280;52200;53.490;14.376;2023-04-19T05:40:27;102484.53;;;5.73;80.49
65557;BME280;52200;53.490;14.376;2023-04-19T05:42:53;102480.13;;;5.62;80.34
65557;BME280;52200;53.490;14.376;2023-04-19T05:45:20;102481.06;;;5.66;80.81
65557;BME280;52200;53.490;14.376;2023-04-19T05:47:46;102472.91;;;5.78;80.30
65557;BME280;52200;53.490;14.376;2023-04-19T05:50:11;102480.59;;;5.84;79.78
65557;BME280;52200;53.490;14.376;2023-04-19T05:52:39;102473.22;;;6.35;78.31
65557;BME280;52200;53.490;14.376;2023-04-19T05:55:04;102468.31;;;6.87;76.62
65557;BME280;52200;53.490;14.376;2023-04-19T05:57:30;102465.69;;;7.34;75.28
65557;BME280;52200;53.490;14.376;2023-04-19T05:59:56;102467.38;;;7.35;74.73
65557;BME280;52200;53.490;14.376;2023-04-19T06:02:21;102470.16;;;6.97;74.03
65557;BME280;52200;53.490;14.376;2023-04-19T06:04:47;102456.41;;;6.83;74.35
65557;BME280;52200;53.490;14.376;2023-04-19T06:07:13;102464.78;;;6.78;75.17
65557;BME280;52200;53.490;14.376;2023-04-19T06:09:38;102462.75;;;6.59;75.59
65557;BME280;52200;53.490;14.376;2023-04-19T06:12:04;102460.09;;;6.51;75.81
65557;BME280;52200;53.490;14.376;2023-04-19T06:14:29;102459.13;;;6.44;75.40
65557;BME280;52200;53.490;14.376;2023-04-19T06:20:17;102443.22;;;6.50;75.52
65557;BME280;52200;53.490;14.376;2023-04-19T06:22:45;102442.47;;;6.56;75.90
65557;BME280;52200;53.490;14.376;2023-04-19T06:25:11;102451.88;;;6.63;75.05
65557;BME280;52200;53.490;14.376;2023-04-19T06:27:36;102459.63;;;6.72;75.53
65557;BME280;52200;53.490;14.376;2023-04-19T06:30:02;102450.50;;;6.81;73.93
65557;BME280;52200;53.490;14.376;2023-04-19T06:32:27;102452.25;;;6.83;73.92
65557;BME280;52200;53.490;14.376;2023-04-19T06:34:53;102451.56;;;6.95;73.38
65557;BME280;52200;53.490;14.376;2023-04-19T06:37:18;102461.78;;;7.01;74.25
65557;BME280;52200;53.490;14.376;2023-04-19T06:39:43;102461.88;;;7.07;73.10
65557;BME280;52200;53.490;14.376;2023-04-19T06:42:09;102446.84;;;7.15;72.87
65557;BME280;52200;53.490;14.376;2023-04-19T06:44:34;102450.25;;;7.19;72.82
65557;BME280;52200;53.490;14.376;2023-04-19T06:46:59;102452.03;;;7.23;72.97
65557;BME280;52200;53.490;14.376;2023-04-19T06:49:25;102450.69;;;7.47;72.15
65557;BME280;52200;53.490;14.376;2023-04-19T06:51:50;102454.38;;;7.72;72.47
65557;BME280;52200;53.490;14.376;2023-04-19T06:54:16;102444.09;;;7.58;70.85
65557;BME280;52200;53.490;14.376;2023-04-19T06:56:44;102444.97;;;7.60;71.81
65557;BME280;52200;53.490;14.376;2023-04-19T06:59:14;102434.22;;;7.78;70.30
65557;BME280;52200;53.490;14.376;2023-04-19T07:01:41;102449.38;;;7.73;69.54
65557;BME280;52200;53.490;14.376;2023-04-19T07:04:07;102432.81;;;7.99;69.68
65557;BME280;52200;53.490;14.376;2023-04-19T07:06:36;102450.78;;;8.22;70.07
65557;BME280;52200;53.490;14.376;2023-04-19T07:09:02;102439.03;;;8.27;69.40
65557;BME280;52200;53.490;14.376;2023-04-19T07:11:28;102438.25;;;8.34;70.06
65557;BME280;52200;53.490;14.376;2023-04-19T07:13:54;102435.13;;;8.57;70.19
65557;BME280;52200;53.490;14.376;2023-04-19T07:16:19;102427.78;;;8.86;69.61
65557;BME280;52200;53.490;14.376;2023-04-19T07:18:45;102436.78;;;8.50;68.11
65557;BME280;52200;53.490;14.376;2023-04-19T07:21:10;102443.97;;;8.16;68.34
65557;BME280;52200;53.490;14.376;2023-04-19T07:23:36;102436.16;;;7.99;68.94
65557;BME280;52200;53.490;14.376;2023-04-19T07:26:01;102441.13;;;7.90;69.54
65557;BME280;52200;53.490;14.376;2023-04-19T07:28:30;102431.22;;;8.09;70.77
65557;BME280;52200;53.490;14.376;2023-04-19T07:30:56;102431.31;;;8.15;70.25
65557;BME280;52200;53.490;14.376;2023-04-19T07:33:22;102434.72;;;8.20;70.35
65557;BME280;52200;53.490;14.376;2023-04-19T07:35:47;102433.13;;;8.28;69.62
65557;BME280;52200;53.490;14.376;2023-04-19T07:38:13;102427.97;;;8.19;69.79
65557;BME280;52200;53.490;14.376;2023-04-19T07:40:38;102427.19;;;8.25;69.60
65557;BME280;52200;53.490;14.376;2023-04-19T07:43:03;102428.69;;;8.09;70.05
65557;BME280;52200;53.490;14.376;2023-04-19T07:45:29;102428.75;;;8.15;69.37
65557;BME280;52200;53.490;14.376;2023-04-19T07:47:55;102417.06;;;8.25;70.19
65557;BME280;52200;53.490;14.376;2023-04-19T07:50:20;102416.94;;;8.15;69.33
65557;BME280;52200;53.490;14.376;2023-04-19T07:52:45;102416.66;;;7.87;69.03
65557;BME280;52200;53.490;14.376;2023-04-19T07:55:11;102419.25;;;7.92;69.44
65557;BME280;52200;53.490;14.376;2023-04-19T07:57:36;102424.91;;;7.75;68.96
65557;BME280;52200;53.490;14.376;2023-04-19T08:00:02;102425.47;;;7.53;69.54
65557;BME280;52200;53.490;14.376;2023-04-19T08:02:29;102424.56;;;7.48;69.44
65557;BME280;52200;53.490;14.376;2023-04-19T08:04:54;102421.47;;;7.67;70.22
65557;BME280;52200;53.490;14.376;2023-04-19T08:07:21;102419.94;;;7.80;70.24
65557;BME280;52200;53.490;14.376;2023-04-19T08:09:48;102417.47;;;7.88;69.53
65557;BME280;52200;53.490;14.376;2023-04-19T08:12:13;102418.50;;;8.02;68.64
65557;BME280;52200;53.490;14.376;2023-04-19T08:14:38;102419.47;;;8.12;68.04
65557;BME280;52200;53.490;14.376;2023-04-19T08:17:04;102405.16;;;8.17;67.70
65557;BME280;52200;53.490;14.376;2023-04-19T08:19:30;102403.84;;;8.52;67.33
65557;BME280;52200;53.490;14.376;2023-04-19T08:21:55;102412.97;;;8.37;67.00
65557;BME280;52200;53.490;14.376;2023-04-19T08:24:21;102410.28;;;8.22;67.80
65557;BME280;52200;53.490;14.376;2023-04-19T08:26:47;102412.88;;;8.30;67.67
65557;BME280;52200;53.490;14.376;2023-04-19T08:29:18;102401.78;;;8.17;67.90
65557;BME280;52200;53.490;14.376;2023-04-19T08:31:44;102400.91;;;8.15;67.59
65557;BME280;52200;53.490;14.376;2023-04-19T08:34:10;102393.81;;;8.63;67.81
65557;BME280;52200;53.490;14.376;2023-04-19T08:36:35;102393.97;;;8.86;66.13
65557;BME280;52200;53.490;14.376;2023-04-19T08:39:01;102393.09;;;8.78;65.54
65557;BME280;52200;53.490;14.376;2023-04-19T08:41:28;102383.03;;;8.90;66.72
65557;BME280;52200;53.490;14.376;2023-04-19T08:43:55;102391.53;;;8.95;65.74
65557;BME280;52200;53.490;14.376;2023-04-19T08:46:22;102387.00;;;8.55;65.48
65557;BME280;52200;53.490;14.376;2023-04-19T08:48:49;102388.59;;;8.49;66.32
65557;BME280;52200;53.490;14.376;2023-04-19T08:51:16;102386.84;;;8.43;65.88
65557;BME280;52200;53.490;14.376;2023-04-19T08:53:43;102387.16;;;8.74;65.99
65557;BME280;52200;53.490;14.376;2023-04-19T08:56:08;102381.38;;;8.98;66.07
65557;BME280;52200;53.490;14.376;2023-04-19T08:58:34;102390.84;;;9.19;65.25
65557;BME280;52200;53.490;14.376;2023-04-19T09:01:00;102381.38;;;8.95;65.08
65557;BME280;52200;53.490;14.376;2023-04-19T09:03:27;102386.50;;;9.01;65.28
65557;BME280;52200;53.490;14.376;2023-04-19T09:05:53;102381.47;;;9.11;65.93
65557;BME280;52200;53.490;14.376;2023-04-19T09:08:25;102383.16;;;9.09;64.31
65557;BME280;52200;53.490;14.376;2023-04-19T09:10:57;102370.66;;;9.43;65.37
65557;BME280;52200;53.490;14.376;2023-04-19T09:13:23;102358.81;;;9.40;63.66
65557;BME280;52200;53.490;14.376;2023-04-19T09:15:49;102360.63;;;9.67;64.78
65557;BME280;52200;53.490;14.376;2023-04-19T09:18:15;102360.66;;;9.69;65.28
65557;BME280;52200;53.490;14.376;2023-04-19T09:20:44;102346.22;;;9.59;64.21
65557;BME280;52200;53.490;14.376;2023-04-19T09:23:13;102336.97;;;9.78;64.78
65557;BME280;52200;53.490;14.376;2023-04-19T09:25:39;102334.50;;;10.09;65.90
65557;BME280;52200;53.490;14.376;2023-04-19T09:28:14;102335.41;;;10.45;64.49
65557;BME280;52200;53.490;14.376;2023-04-19T09:30:40;102332.00;;;10.60;63.93
65557;BME280;52200;53.490;14.376;2023-04-19T09:33:06;102329.47;;;10.52;62.37
65557;BME280;52200;53.490;14.376;2023-04-19T09:35:42;102339.59;;;10.27;61.89
65557;BME280;52200;53.490;14.376;2023-04-19T09:38:08;102328.53;;;9.90;62.91
65557;BME280;52200;53.490;14.376;2023-04-19T09:40:35;102331.03;;;9.76;62.41
65557;BME280;52200;53.490;14.376;2023-04-19T09:43:01;102325.16;;;9.83;62.64
65557;BME280;52200;53.490;14.376;2023-04-19T09:45:38;102317.56;;;10.23;63.47
65557;BME280;52200;53.490;14.376;2023-04-19T09:48:05;102317.63;;;10.37;62.82
65557;BME280;52200;53.490;14.376;2023-04-19T09:50:31;102322.69;;;10.60;63.02
65557;BME280;52200;53.490;14.376;2023-04-19T09:52:58;102320.16;;;10.40;61.68
65557;BME280;52200;53.490;14.376;2023-04-19T09:55:25;102317.56;;;10.23;61.19
65557;BME280;52200;53.490;14.376;2023-04-19T09:57:51;102305.75;;;10.28;62.12
65557;BME280;52200;53.490;14.376;2023-04-19T10:00:17;102307.41;;;10.17;61.76
65557;BME280;52200;53.490;14.376;2023-04-19T10:02:43;102306.53;;;9.95;60.91
65557;BME280;52200;53.490;14.376;2023-04-19T10:05:14;102304.03;;;10.09;61.47
65557;BME280;52200;53.490;14.376;2023-04-19T10:07:40;102302.31;;;10.23;61.72
65557;BME280;52200;53.490;14.376;2023-04-19T10:10:06;102299.81;;;10.70;61.21
65557;BME280;52200;53.490;14.376;2023-04-19T10:12:34;102299.81;;;10.53;60.34
65557;BME280;52200;53.490;14.376;2023-04-19T10:15:00;102297.28;;;10.50;60.01
65557;BME280;52200;53.490;14.376;2023-04-19T10:17:26;102293.91;;;10.40;59.90
65557;BME280;52200;53.490;14.376;2023-04-19T10:20:19;102290.50;;;10.19;59.71
65557;BME280;52200;53.490;14.376;2023-04-19T10:22:47;102287.09;;;10.08;59.03
65557;BME280;52200;53.490;14.376;2023-04-19T10:25:14;102287.09;;;10.14;59.13
65557;BME280;52200;53.490;14.376;2023-04-19T10:27:41;102284.56;;;10.17;58.87
65557;BME280;52200;53.490;14.376;2023-04-19T10:30:23;102274.41;;;10.26;59.86
65557;BME280;52200;53.490;14.376;2023-04-19T10:32:55;102282.88;;;10.72;59.28
65557;BME280;52200;53.490;14.376;2023-04-19T10:35:24;102277.81;;;10.41;59.77
65557;BME280;52200;53.490;14.376;2023-04-19T10:38:10;102276.94;;;10.23;60.35
65557;BME280;52200;53.490;14.376;2023-04-19T10:40:57;102277.78;;;10.04;59.41
65557;BME280;52200;53.490;14.376;2023-04-19T10:45:58;102270.16;;;10.11;60.28
65557;BME280;52200;53.490;14.376;2023-04-19T10:51:20;102262.53;;;10.08;58.59
65557;BME280;52200;53.490;14.376;2023-04-19T11:01:47;102249.84;;;9.79;59.71
65557;BME280;52200;53.490;14.376;2023-04-19T11:06:59;102249.00;;;10.02;60.31
65557;BME280;52200;53.490;14.376;2023-04-19T11:09:35;102235.44;;;10.13;60.13
65557;BME280;52200;53.490;14.376;2023-04-19T11:12:03;102228.69;;;10.03;59.88
65557;BME280;52200;53.490;14.376;2023-04-19T11:14:34;102238.00;;;10.03;60.56
65557;BME280;52200;53.490;14.376;2023-04-19T11:17:03;102224.47;;;10.07;59.65
65557;BME280;52200;53.490;14.376;2023-04-19T11:19:37;102223.59;;;9.74;60.18
65557;BME280;52200;53.490;14.376;2023-04-19T11:22:03;102214.28;;;9.71;59.74
65557;BME280;52200;53.490;14.376;2023-04-19T11:24:28;102225.28;;;9.73;60.18
65557;BME280;52200;53.490;14.376;2023-04-19T11:26:55;102219.38;;;9.73;59.72
65557;BME280;52200;53.490;14.376;2023-04-19T11:29:21;102210.06;;;9.59;59.02
65557;BME280;52200;53.490;14.376;2023-04-19T11:31:47;102212.63;;;10.09;60.23
65557;BME280;52200;53.490;14.376;2023-04-19T11:34:12;102221.06;;;10.26;58.41
65557;BME280;52200;53.490;14.376;2023-04-19T11:36:48;102210.88;;;10.34;58.72
65557;BME280;52200;53.490;14.376;2023-04-19T11:39:14;102201.59;;;10.38;58.65
65557;BME280;52200;53.490;14.376;2023-04-19T11:41:40;102200.69;;;10.63;58.75
65557;BME280;52200;53.490;14.376;2023-04-19T11:44:16;102196.34;;;10.89;56.96
65557;BME280;52200;53.490;14.376;2023-04-19T11:46:56;102189.63;;;10.78;56.71
65557;BME280;52200;53.490;14.376;2023-04-19T11:49:27;102193.78;;;10.93;56.81
65557;BME280;52200;53.490;14.376;2023-04-19T11:51:57;102186.19;;;10.89;56.88
65557;BME280;52200;53.490;14.376;2023-04-19T11:54:23;102177.88;;;10.45;58.35
65557;BME280;52200;53.490;14.376;2023-04-19T11:57:25;102186.31;;;10.55;58.49
65557;BME280;52200;53.490;14.376;2023-04-19T12:00:07;102188.06;;;10.03;59.41
65557;BME280;52200;53.490;14.376;2023-04-19T12:02:37;102178.78;;;9.73;59.80
65557;BME280;52200;53.490;14.376;2023-04-19T12:05:07;102178.75;;;9.76;60.26
65557;BME280;52200;53.490;14.376;2023-04-19T12:07:34;102192.31;;;10.03;61.31
65557;BME280;52200;53.490;14.376;2023-04-19T12:10:07;102168.59;;;9.94;59.53
65557;BME280;52200;53.490;14.376;2023-04-19T12:12:34;102181.31;;;9.88;59.96
65557;BME280;52200;53.490;14.376;2023-04-19T12:15:00;102173.69;;;10.07;60.50
65557;BME280;52200;53.490;14.376;2023-04-19T12:17:25;102171.13;;;10.28;59.69
65557;BME280;52200;53.490;14.376;2023-04-19T12:19:51;102161.78;;;10.37;57.83
65557;BME280;52200;53.490;14.376;2023-04-19T12:22:18;102177.91;;;10.19;58.36
65557;BME280;52200;53.490;14.376;2023-04-19T12:24:51;102167.72;;;10.22;57.64
65557;BME280;52200;53.490;14.376;2023-04-19T12:27:20;102170.28;;;9.98;58.46
65557;BME280;52200;53.490;14.376;2023-04-19T12:29:46;102161.84;;;9.53;58.86
65557;BME280;52200;53.490;14.376;2023-04-19T12:32:11;102155.88;;;9.18;59.77
65557;BME280;52200;53.490;14.376;2023-04-19T12:34:37;102154.97;;;9.02;59.99
65557;BME280;52200;53.490;14.376;2023-04-19T12:37:02;102160.06;;;9.09;61.07
65557;BME280;52200;53.490;14.376;2023-04-19T12:39:29;102154.13;;;8.99;60.86
65557;BME280;52200;53.490;14.376;2023-04-19T12:41:55;102154.94;;;8.99;61.38
65557;BME280;52200;53.490;14.376;2023-04-19T12:44:20;102157.47;;;8.90;61.38
65557;BME280;52200;53.490;14.376;2023-04-19T12:46:46;102159.16;;;8.94;61.99
65557;BME280;52200;53.490;14.376;2023-04-19T12:49:11;102160.88;;;8.95;61.64
65557;BME280;52200;53.490;14.376;2023-04-19T12:51:36;102148.06;;;8.66;61.65
65557;BME280;52200;53.490;14.376;2023-04-19T12:54:02;102153.91;;;8.52;61.62
65557;BME280;52200;53.490;14.376;2023-04-19T12:56:27;102138.66;;;8.42;62.71
65557;BME280;52200;53.490;14.376;2023-04-19T12:58:53;102140.25;;;8.26;61.70
65557;BME280;52200;53.490;14.376;2023-04-19T13:01:18;102151.31;;;8.42;62.77
65557;BME280;52200;53.490;14.376;2023-04-19T13:03:44;102157.38;;;8.67;62.31